sensor_id;sensor_type;location;lat;lon;timestamp;P1;durP1;ratioP1;P2;durP2;ratioP2
8317;SDS011;4196;48.926;8.964;2023-08-06T00:00:51;3.47;;;2.80;;
8317;SDS011;4196;48.926;8.964;2023-08-06T00:03:38;3.57;;;2.70;;
8317;SDS011;4196;48.926;8.964;2023-08-06T00:06:24;3.00;;;2.70;;
8317;SDS011;4196;48.926;8.964;2023-08-06T00:09:11;3.30;;;2.70;;
8317;SDS011;4196;48.926;8.964;2023-08-06T00:11:57;3.90;;;2.90;;
8317;SDS011;4196;48.926;8.964;2023-08-06T00:14:44;3.87;;;2.73;;
8317;SDS011;4196;48.926;8.964;2023-08-06T00:17:31;3.60;;;2.73;;
8317;SDS011;4196;48.926;8.964;2023-08-06T00:20:17;3.33;;;2.60;;
8317;SDS011;4196;48.926;8.964;2023-08-06T00:23:04;2.93;;;2.67;;
8317;SDS011;4196;48.926;8.964;2023-08-06T00:25:50;3.70;;;2.43;;
8317;SDS011;4196;48.926;8.964;2023-08-06T00:28:37;3.93;;;2.60;;
8317;SDS011;4196;48.926;8.964;2023-08-06T00:31:23;2.80;;;2.50;;
8317;SDS011;4196;48.926;8.964;2023-08-06T00:34:10;3.50;;;2.30;;
8317;SDS011;4196;48.926;8.964;2023-08-06T00:36:56;2.87;;;2.50;;
8317;SDS011;4196;48.926;8.964;2023-08-06T00:39:43;3.23;;;2.83;;
8317;SDS011;4196;48.926;8.964;2023-08-06T00:42:30;3.60;;;2.87;;
8317;SDS011;4196;48.926;8.964;2023-08-06T00:45:16;5.30;;;2.97;;
8317;SDS011;4196;48.926;8.964;2023-08-06T00:48:03;3.37;;;2.50;;
8317;SDS011;4196;48.926;8.964;2023-08-06T00:50:51;3.70;;;2.77;;
8317;SDS011;4196;48.926;8.964;2023-08-06T00:53:38;4.17;;;2.70;;
8317;SDS011;4196;48.926;8.964;2023-08-06T00:56:25;2.83;;;2.50;;
8317;SDS011;4196;48.926;8.964;2023-08-06T00:59:12;4.73;;;2.27;;
8317;SDS011;4196;48.926;8.964;2023-08-06T01:01:59;3.00;;;2.70;;
8317;SDS011;4196;48.926;8.964;2023-08-06T01:04:45;3.43;;;2.30;;
8317;SDS011;4196;48.926;8.964;2023-08-06T01:07:37;3.30;;;2.63;;
8317;SDS011;4196;48.926;8.964;2023-08-06T01:14:13;2.50;;;2.30;;
8317;SDS011;4196;48.926;8.964;2023-08-06T01:17:04;5.43;;;2.60;;
8317;SDS011;4196;48.926;8.964;2023-08-06T01:19:51;2.93;;;2.40;;
8317;SDS011;4196;48.926;8.964;2023-08-06T01:22:37;3.13;;;2.43;;
8317;SDS011;4196;48.926;8.964;2023-08-06T01:25:26;2.87;;;2.17;;
8317;SDS011;4196;48.926;8.964;2023-08-06T01:28:27;2.30;;;2.10;;
8317;SDS011;4196;48.926;8.964;2023-08-06T01:31:29;4.10;;;2.60;;
8317;SDS011;4196;48.926;8.964;2023-08-06T01:34:21;3.83;;;2.67;;
8317;SDS011;4196;48.926;8.964;2023-08-06T01:41:40;4.53;;;2.53;;
8317;SDS011;4196;48.926;8.964;2023-08-06T01:44:26;2.80;;;2.50;;
8317;SDS011;4196;48.926;8.964;2023-08-06T01:47:13;2.80;;;2.60;;
8317;SDS011;4196;48.926;8.964;2023-08-06T01:49:59;3.20;;;2.30;;
8317;SDS011;4196;48.926;8.964;2023-08-06T01:52:46;2.70;;;2.40;;
8317;SDS011;4196;48.926;8.964;2023-08-06T01:55:33;3.73;;;2.67;;
8317;SDS011;4196;48.926;8.964;2023-08-06T01:58:19;3.30;;;2.57;;
8317;SDS011;4196;48.926;8.964;2023-08-06T02:01:05;3.20;;;2.33;;
8317;SDS011;4196;48.926;8.964;2023-08-06T02:03:52;4.37;;;3.33;;
8317;SDS011;4196;48.926;8.964;2023-08-06T02:06:38;3.07;;;2.70;;
8317;SDS011;4196;48.926;8.964;2023-08-06T02:09:26;3.93;;;2.80;;
8317;SDS011;4196;48.926;8.964;2023-08-06T02:12:12;2.50;;;2.30;;
8317;SDS011;4196;48.926;8.964;2023-08-06T02:14:59;5.00;;;2.73;;
8317;SDS011;4196;48.926;8.964;2023-08-06T02:17:45;3.00;;;2.30;;
8317;SDS011;4196;48.926;8.964;2023-08-06T02:20:32;3.90;;;2.47;;
8317;SDS011;4196;48.926;8.964;2023-08-06T02:23:19;3.23;;;2.47;;
8317;SDS011;4196;48.926;8.964;2023-08-06T02:26:06;3.80;;;2.70;;
8317;SDS011;4196;48.926;8.964;2023-08-06T02:28:52;2.97;;;2.57;;
8317;SDS011;4196;48.926;8.964;2023-08-06T02:31:38;4.50;;;2.80;;
8317;SDS011;4196;48.926;8.964;2023-08-06T02:34:25;2.77;;;2.50;;
8317;SDS011;4196;48.926;8.964;2023-08-06T02:37:11;3.77;;;3.00;;
8317;SDS011;4196;48.926;8.964;2023-08-06T02:39:58;3.20;;;2.90;;
8317;SDS011;4196;48.926;8.964;2023-08-06T02:42:44;3.33;;;2.70;;
8317;SDS011;4196;48.926;8.964;2023-08-06T02:45:31;3.00;;;2.70;;
8317;SDS011;4196;48.926;8.964;2023-08-06T02:48:17;3.10;;;2.80;;
8317;SDS011;4196;48.926;8.964;2023-08-06T02:51:04;4.37;;;2.70;;
8317;SDS011;4196;48.926;8.964;2023-08-06T02:53:52;3.57;;;2.80;;
8317;SDS011;4196;48.926;8.964;2023-08-06T02:56:42;4.30;;;2.50;;
8317;SDS011;4196;48.926;8.964;2023-08-06T02:59:37;4.13;;;2.97;;
8317;SDS011;4196;48.926;8.964;2023-08-06T03:02:28;3.47;;;2.60;;
8317;SDS011;4196;48.926;8.964;2023-08-06T03:05:27;2.83;;;2.57;;
8317;SDS011;4196;48.926;8.964;2023-08-06T03:08:13;5.93;;;3.10;;
8317;SDS011;4196;48.926;8.964;2023-08-06T03:11:00;4.60;;;2.97;;
8317;SDS011;4196;48.926;8.964;2023-08-06T03:13:47;5.73;;;2.97;;
8317;SDS011;4196;48.926;8.964;2023-08-06T03:16:34;3.97;;;3.00;;
8317;SDS011;4196;48.926;8.964;2023-08-06T03:19:21;4.73;;;3.00;;
8317;SDS011;4196;48.926;8.964;2023-08-06T03:22:08;3.77;;;2.60;;
8317;SDS011;4196;48.926;8.964;2023-08-06T03:24:55;3.40;;;2.77;;
8317;SDS011;4196;48.926;8.964;2023-08-06T03:27:44;3.70;;;2.43;;
8317;SDS011;4196;48.926;8.964;2023-08-06T03:30:32;4.03;;;2.60;;
8317;SDS011;4196;48.926;8.964;2023-08-06T03:33:19;4.67;;;2.50;;
8317;SDS011;4196;48.926;8.964;2023-08-06T03:36:06;4.00;;;2.83;;
8317;SDS011;4196;48.926;8.964;2023-08-06T03:38:54;3.43;;;2.40;;
8317;SDS011;4196;48.926;8.964;2023-08-06T03:41:41;2.87;;;2.37;;
8317;SDS011;4196;48.926;8.964;2023-08-06T03:44:27;2.87;;;1.97;;
8317;SDS011;4196;48.926;8.964;2023-08-06T03:47:14;4.30;;;2.00;;
8317;SDS011;4196;48.926;8.964;2023-08-06T03:50:01;4.17;;;2.17;;
8317;SDS011;4196;48.926;8.964;2023-08-06T03:52:49;2.17;;;1.97;;
8317;SDS011;4196;48.926;8.964;2023-08-06T03:55:36;1.70;;;1.60;;
8317;SDS011;4196;48.926;8.964;2023-08-06T03:58:22;3.20;;;1.83;;
8317;SDS011;4196;48.926;8.964;2023-08-06T04:01:09;3.73;;;2.10;;
8317;SDS011;4196;48.926;8.964;2023-08-06T04:04:02;2.90;;;1.97;;
8317;SDS011;4196;48.926;8.964;2023-08-06T04:06:49;2.33;;;1.73;;
8317;SDS011;4196;48.926;8.964;2023-08-06T04:09:50;2.57;;;1.83;;
8317;SDS011;4196;48.926;8.964;2023-08-06T04:12:41;2.10;;;1.80;;
8317;SDS011;4196;48.926;8.964;2023-08-06T04:15:28;1.30;;;1.20;;
8317;SDS011;4196;48.926;8.964;2023-08-06T04:18:16;1.63;;;1.20;;
8317;SDS011;4196;48.926;8.964;2023-08-06T04:21:03;2.23;;;2.03;;
8317;SDS011;4196;48.926;8.964;2023-08-06T04:23:49;1.10;;;1.00;;
8317;SDS011;4196;48.926;8.964;2023-08-06T04:26:37;1.47;;;1.10;;
8317;SDS011;4196;48.926;8.964;2023-08-06T04:29:24;4.07;;;1.00;;
8317;SDS011;4196;48.926;8.964;2023-08-06T04:32:12;2.17;;;1.07;;
8317;SDS011;4196;48.926;8.964;2023-08-06T04:35:04;1.30;;;1.03;;
8317;SDS011;4196;48.926;8.964;2023-08-06T04:37:51;2.13;;;1.93;;
8317;SDS011;4196;48.926;8.964;2023-08-06T04:40:37;1.63;;;1.00;;
8317;SDS011;4196;48.926;8.964;2023-08-06T04:43:24;1.30;;;1.20;;
8317;SDS011;4196;48.926;8.964;2023-08-06T04:46:11;4.00;;;0.70;;
8317;SDS011;4196;48.926;8.964;2023-08-06T04:48:57;1.40;;;1.10;;
8317;SDS011;4196;48.926;8.964;2023-08-06T04:51:43;1.03;;;0.90;;
8317;SDS011;4196;48.926;8.964;2023-08-06T04:54:30;4.80;;;1.00;;
8317;SDS011;4196;48.926;8.964;2023-08-06T04:57:16;2.90;;;1.17;;
8317;SDS011;4196;48.926;8.964;2023-08-06T05:00:03;2.60;;;1.07;;
8317;SDS011;4196;48.926;8.964;2023-08-06T05:02:50;1.20;;;0.83;;
8317;SDS011;4196;48.926;8.964;2023-08-06T05:05:39;2.40;;;1.70;;
8317;SDS011;4196;48.926;8.964;2023-08-06T05:08:26;1.63;;;1.00;;
8317;SDS011;4196;48.926;8.964;2023-08-06T05:11:12;1.60;;;0.87;;
8317;SDS011;4196;48.926;8.964;2023-08-06T05:13:59;2.10;;;0.90;;
8317;SDS011;4196;48.926;8.964;2023-08-06T05:16:45;1.53;;;0.77;;
8317;SDS011;4196;48.926;8.964;2023-08-06T05:19:32;0.77;;;0.70;;
8317;SDS011;4196;48.926;8.964;2023-08-06T05:22:18;0.90;;;0.60;;
8317;SDS011;4196;48.926;8.964;2023-08-06T05:25:05;1.60;;;0.90;;
8317;SDS011;4196;48.926;8.964;2023-08-06T05:27:52;4.47;;;0.80;;
8317;SDS011;4196;48.926;8.964;2023-08-06T05:30:39;1.73;;;0.80;;
8317;SDS011;4196;48.926;8.964;2023-08-06T05:33:26;1.53;;;0.90;;
8317;SDS011;4196;48.926;8.964;2023-08-06T05:36:13;0.80;;;0.80;;
8317;SDS011;4196;48.926;8.964;2023-08-06T05:38:59;1.30;;;1.00;;
8317;SDS011;4196;48.926;8.964;2023-08-06T05:41:46;1.17;;;0.87;;
8317;SDS011;4196;48.926;8.964;2023-08-06T05:44:32;0.97;;;0.80;;
8317;SDS011;4196;48.926;8.964;2023-08-06T05:47:18;1.73;;;1.00;;
8317;SDS011;4196;48.926;8.964;2023-08-06T05:50:06;1.80;;;1.00;;
8317;SDS011;4196;48.926;8.964;2023-08-06T05:52:53;0.83;;;0.67;;
8317;SDS011;4196;48.926;8.964;2023-08-06T05:55:39;2.90;;;0.90;;
8317;SDS011;4196;48.926;8.964;2023-08-06T05:58:26;1.00;;;0.80;;
8317;SDS011;4196;48.926;8.964;2023-08-06T06:01:15;0.70;;;0.57;;
8317;SDS011;4196;48.926;8.964;2023-08-06T06:04:02;1.60;;;0.70;;
8317;SDS011;4196;48.926;8.964;2023-08-06T06:06:48;1.20;;;1.07;;
8317;SDS011;4196;48.926;8.964;2023-08-06T06:09:34;1.70;;;0.70;;
8317;SDS011;4196;48.926;8.964;2023-08-06T06:12:21;3.20;;;0.80;;
8317;SDS011;4196;48.926;8.964;2023-08-06T06:15:08;0.50;;;0.50;;
8317;SDS011;4196;48.926;8.964;2023-08-06T06:17:55;2.10;;;0.97;;
8317;SDS011;4196;48.926;8.964;2023-08-06T06:20:42;0.80;;;0.80;;
8317;SDS011;4196;48.926;8.964;2023-08-06T06:23:29;1.83;;;0.83;;
8317;SDS011;4196;48.926;8.964;2023-08-06T06:26:15;0.70;;;0.70;;
8317;SDS011;4196;48.926;8.964;2023-08-06T06:29:02;1.90;;;0.80;;
8317;SDS011;4196;48.926;8.964;2023-08-06T06:31:49;0.60;;;0.60;;
8317;SDS011;4196;48.926;8.964;2023-08-06T06:34:35;0.50;;;0.50;;
8317;SDS011;4196;48.926;8.964;2023-08-06T06:37:22;0.83;;;0.57;;
8317;SDS011;4196;48.926;8.964;2023-08-06T06:40:08;3.20;;;0.90;;
8317;SDS011;4196;48.926;8.964;2023-08-06T06:42:55;0.50;;;0.50;;
8317;SDS011;4196;48.926;8.964;2023-08-06T06:45:41;0.67;;;0.67;;
8317;SDS011;4196;48.926;8.964;2023-08-06T06:48:29;1.00;;;0.80;;
8317;SDS011;4196;48.926;8.964;2023-08-06T06:51:17;1.33;;;0.70;;
8317;SDS011;4196;48.926;8.964;2023-08-06T06:54:04;0.77;;;0.50;;
8317;SDS011;4196;48.926;8.964;2023-08-06T06:56:50;0.90;;;0.60;;
8317;SDS011;4196;48.926;8.964;2023-08-06T06:59:36;1.17;;;0.60;;
8317;SDS011;4196;48.926;8.964;2023-08-06T07:02:24;0.30;;;0.30;;
8317;SDS011;4196;48.926;8.964;2023-08-06T07:05:11;0.80;;;0.70;;
8317;SDS011;4196;48.926;8.964;2023-08-06T07:07:57;0.50;;;0.50;;
8317;SDS011;4196;48.926;8.964;2023-08-06T07:10:43;0.40;;;0.40;;
8317;SDS011;4196;48.926;8.964;2023-08-06T07:13:30;1.50;;;0.40;;
8317;SDS011;4196;48.926;8.964;2023-08-06T07:16:16;0.17;;;0.17;;
8317;SDS011;4196;48.926;8.964;2023-08-06T07:19:02;0.20;;;0.20;;
8317;SDS011;4196;48.926;8.964;2023-08-06T07:21:49;0.97;;;0.50;;
8317;SDS011;4196;48.926;8.964;2023-08-06T07:24:35;0.70;;;0.63;;
8317;SDS011;4196;48.926;8.964;2023-08-06T07:27:22;0.40;;;0.33;;
8317;SDS011;4196;48.926;8.964;2023-08-06T07:30:08;0.50;;;0.50;;
8317;SDS011;4196;48.926;8.964;2023-08-06T07:32:54;8.90;;;0.60;;
8317;SDS011;4196;48.926;8.964;2023-08-06T07:35:41;0.20;;;0.20;;
8317;SDS011;4196;48.926;8.964;2023-08-06T07:38:27;0.10;;;0.10;;
8317;SDS011;4196;48.926;8.964;2023-08-06T07:41:16;0.17;;;0.17;;
8317;SDS011;4196;48.926;8.964;2023-08-06T07:44:02;0.27;;;0.10;;
8317;SDS011;4196;48.926;8.964;2023-08-06T07:46:49;0.60;;;0.50;;
8317;SDS011;4196;48.926;8.964;2023-08-06T07:49:35;0.20;;;0.20;;
8317;SDS011;4196;48.926;8.964;2023-08-06T07:52:22;0.00;;;0.00;;
8317;SDS011;4196;48.926;8.964;2023-08-06T07:55:08;0.40;;;0.40;;
8317;SDS011;4196;48.926;8.964;2023-08-06T07:57:55;0.20;;;0.20;;
8317;SDS011;4196;48.926;8.964;2023-08-06T08:00:41;0.67;;;0.40;;
8317;SDS011;4196;48.926;8.964;2023-08-06T08:03:30;0.37;;;0.30;;
8317;SDS011;4196;48.926;8.964;2023-08-06T08:06:17;0.10;;;0.10;;
8317;SDS011;4196;48.926;8.964;2023-08-06T08:09:03;0.10;;;0.10;;
8317;SDS011;4196;48.926;8.964;2023-08-06T08:11:50;0.30;;;0.30;;
8317;SDS011;4196;48.926;8.964;2023-08-06T08:14:37;0.10;;;0.10;;
8317;SDS011;4196;48.926;8.964;2023-08-06T08:17:23;0.10;;;0.10;;
8317;SDS011;4196;48.926;8.964;2023-08-06T08:20:10;0.97;;;0.10;;
8317;SDS011;4196;48.926;8.964;2023-08-06T08:22:57;0.13;;;0.13;;
8317;SDS011;4196;48.926;8.964;2023-08-06T08:25:46;0.27;;;0.10;;
8317;SDS011;4196;48.926;8.964;2023-08-06T08:28:33;0.20;;;0.10;;
8317;SDS011;4196;48.926;8.964;2023-08-06T08:31:19;0.03;;;0.03;;
8317;SDS011;4196;48.926;8.964;2023-08-06T08:34:06;0.03;;;0.03;;
8317;SDS011;4196;48.926;8.964;2023-08-06T08:36:52;1.83;;;0.10;;
8317;SDS011;4196;48.926;8.964;2023-08-06T08:39:38;0.10;;;0.10;;
8317;SDS011;4196;48.926;8.964;2023-08-06T08:42:24;0.07;;;0.07;;
8317;SDS011;4196;48.926;8.964;2023-08-06T08:45:13;0.10;;;0.10;;
8317;SDS011;4196;48.926;8.964;2023-08-06T08:48:00;0.10;;;0.10;;
8317;SDS011;4196;48.926;8.964;2023-08-06T08:50:48;0.20;;;0.07;;
8317;SDS011;4196;48.926;8.964;2023-08-06T08:53:35;0.00;;;0.00;;
8317;SDS011;4196;48.926;8.964;2023-08-06T08:56:25;0.23;;;0.10;;
8317;SDS011;4196;48.926;8.964;2023-08-06T08:59:11;0.43;;;0.20;;
8317;SDS011;4196;48.926;8.964;2023-08-06T09:01:58;0.10;;;0.10;;
8317;SDS011;4196;48.926;8.964;2023-08-06T09:04:47;0.10;;;0.10;;
8317;SDS011;4196;48.926;8.964;2023-08-06T09:07:35;0.10;;;0.10;;
8317;SDS011;4196;48.926;8.964;2023-08-06T09:10:28;0.00;;;0.00;;
8317;SDS011;4196;48.926;8.964;2023-08-06T09:13:14;0.13;;;0.10;;
8317;SDS011;4196;48.926;8.964;2023-08-06T09:16:00;0.20;;;0.20;;
8317;SDS011;4196;48.926;8.964;2023-08-06T09:18:47;0.30;;;0.30;;
8317;SDS011;4196;48.926;8.964;2023-08-06T09:21:36;0.10;;;0.10;;
8317;SDS011;4196;48.926;8.964;2023-08-06T09:24:24;0.20;;;0.20;;
8317;SDS011;4196;48.926;8.964;2023-08-06T09:27:12;0.30;;;0.30;;
8317;SDS011;4196;48.926;8.964;2023-08-06T09:30:00;0.20;;;0.20;;
8317;SDS011;4196;48.926;8.964;2023-08-06T09:32:47;0.13;;;0.13;;
8317;SDS011;4196;48.926;8.964;2023-08-06T09:35:34;0.10;;;0.10;;
8317;SDS011;4196;48.926;8.964;2023-08-06T09:38:21;0.00;;;0.00;;
8317;SDS011;4196;48.926;8.964;2023-08-06T09:41:07;0.20;;;0.20;;
8317;SDS011;4196;48.926;8.964;2023-08-06T09:43:54;0.00;;;0.00;;
8317;SDS011;4196;48.926;8.964;2023-08-06T09:46:40;0.20;;;0.20;;
8317;SDS011;4196;48.926;8.964;2023-08-06T09:49:28;0.10;;;0.10;;
8317;SDS011;4196;48.926;8.964;2023-08-06T09:52:27;0.10;;;0.10;;
8317;SDS011;4196;48.926;8.964;2023-08-06T09:55:14;0.73;;;0.30;;
8317;SDS011;4196;48.926;8.964;2023-08-06T09:58:01;0.20;;;0.20;;
8317;SDS011;4196;48.926;8.964;2023-08-06T10:00:48;0.40;;;0.37;;
8317;SDS011;4196;48.926;8.964;2023-08-06T10:03:34;0.20;;;0.20;;
8317;SDS011;4196;48.926;8.964;2023-08-06T10:06:23;1.30;;;0.27;;
8317;SDS011;4196;48.926;8.964;2023-08-06T10:09:10;0.10;;;0.10;;
8317;SDS011;4196;48.926;8.964;2023-08-06T10:11:56;0.20;;;0.20;;
8317;SDS011;4196;48.926;8.964;2023-08-06T10:14:44;0.00;;;0.00;;
8317;SDS011;4196;48.926;8.964;2023-08-06T10:17:32;0.07;;;0.07;;
8317;SDS011;4196;48.926;8.964;2023-08-06T10:20:35;0.20;;;0.20;;
8317;SDS011;4196;48.926;8.964;2023-08-06T10:23:27;0.10;;;0.10;;
8317;SDS011;4196;48.926;8.964;2023-08-06T10:26:19;1.23;;;0.20;;
8317;SDS011;4196;48.926;8.964;2023-08-06T10:29:52;0.10;;;0.10;;
8317;SDS011;4196;48.926;8.964;2023-08-06T10:32:25;0.37;;;0.27;;
8317;SDS011;4196;48.926;8.964;2023-08-06T10:38:22;0.57;;;0.40;;
8317;SDS011;4196;48.926;8.964;2023-08-06T10:41:31;0.27;;;0.27;;
8317;SDS011;4196;48.926;8.964;2023-08-06T10:44:18;0.43;;;0.43;;
8317;SDS011;4196;48.926;8.964;2023-08-06T10:47:27;0.40;;;0.40;;
8317;SDS011;4196;48.926;8.964;2023-08-06T10:50:16;0.47;;;0.47;;
8317;SDS011;4196;48.926;8.964;2023-08-06T10:53:04;1.17;;;0.57;;
8317;SDS011;4196;48.926;8.964;2023-08-06T10:55:52;0.50;;;0.50;;
8317;SDS011;4196;48.926;8.964;2023-08-06T10:58:38;1.00;;;0.50;;
8317;SDS011;4196;48.926;8.964;2023-08-06T11:01:24;1.47;;;0.70;;
8317;SDS011;4196;48.926;8.964;2023-08-06T11:04:15;0.87;;;0.80;;
8317;SDS011;4196;48.926;8.964;2023-08-06T11:07:03;1.63;;;0.80;;
8317;SDS011;4196;48.926;8.964;2023-08-06T11:09:50;0.70;;;0.70;;
8317;SDS011;4196;48.926;8.964;2023-08-06T11:12:37;0.73;;;0.73;;
8317;SDS011;4196;48.926;8.964;2023-08-06T11:15:24;1.10;;;0.90;;
8317;SDS011;4196;48.926;8.964;2023-08-06T11:18:10;1.03;;;0.60;;
8317;SDS011;4196;48.926;8.964;2023-08-06T11:20:58;1.20;;;1.03;;
8317;SDS011;4196;48.926;8.964;2023-08-06T11:23:46;1.17;;;0.80;;
8317;SDS011;4196;48.926;8.964;2023-08-06T11:26:32;0.73;;;0.73;;
8317;SDS011;4196;48.926;8.964;2023-08-06T11:29:19;2.30;;;0.80;;
8317;SDS011;4196;48.926;8.964;2023-08-06T11:32:05;1.33;;;1.10;;
8317;SDS011;4196;48.926;8.964;2023-08-06T11:34:52;1.43;;;1.03;;
8317;SDS011;4196;48.926;8.964;2023-08-06T11:37:47;2.33;;;0.93;;
8317;SDS011;4196;48.926;8.964;2023-08-06T11:40:35;1.13;;;1.03;;
8317;SDS011;4196;48.926;8.964;2023-08-06T11:43:22;1.73;;;1.20;;
8317;SDS011;4196;48.926;8.964;2023-08-06T11:46:08;2.00;;;1.17;;
8317;SDS011;4196;48.926;8.964;2023-08-06T11:48:58;2.23;;;1.27;;
8317;SDS011;4196;48.926;8.964;2023-08-06T11:51:45;3.43;;;1.20;;
8317;SDS011;4196;48.926;8.964;2023-08-06T11:54:32;1.20;;;1.10;;
8317;SDS011;4196;48.926;8.964;2023-08-06T11:57:23;1.33;;;1.20;;
8317;SDS011;4196;48.926;8.964;2023-08-06T12:00:12;1.37;;;1.20;;
8317;SDS011;4196;48.926;8.964;2023-08-06T12:03:01;1.60;;;1.50;;
8317;SDS011;4196;48.926;8.964;2023-08-06T12:05:48;2.03;;;1.30;;
8317;SDS011;4196;48.926;8.964;2023-08-06T12:08:34;3.87;;;1.67;;
8317;SDS011;4196;48.926;8.964;2023-08-06T12:11:21;3.40;;;1.60;;
8317;SDS011;4196;48.926;8.964;2023-08-06T12:14:07;2.13;;;1.73;;
8317;SDS011;4196;48.926;8.964;2023-08-06T12:16:54;1.50;;;1.40;;
8317;SDS011;4196;48.926;8.964;2023-08-06T12:19:41;2.30;;;1.40;;
8317;SDS011;4196;48.926;8.964;2023-08-06T12:22:27;7.57;;;3.20;;
8317;SDS011;4196;48.926;8.964;2023-08-06T12:25:13;1.30;;;1.20;;
8317;SDS011;4196;48.926;8.964;2023-08-06T12:28:00;2.40;;;1.80;;
8317;SDS011;4196;48.926;8.964;2023-08-06T12:30:47;2.63;;;1.90;;
8317;SDS011;4196;48.926;8.964;2023-08-06T12:33:34;2.33;;;1.80;;
8317;SDS011;4196;48.926;8.964;2023-08-06T12:36:21;2.57;;;1.53;;
8317;SDS011;4196;48.926;8.964;2023-08-06T12:39:07;1.40;;;1.30;;
8317;SDS011;4196;48.926;8.964;2023-08-06T12:41:54;2.50;;;1.40;;
8317;SDS011;4196;48.926;8.964;2023-08-06T12:44:48;1.80;;;1.30;;
8317;SDS011;4196;48.926;8.964;2023-08-06T12:47:34;1.77;;;1.40;;
8317;SDS011;4196;48.926;8.964;2023-08-06T12:50:21;4.70;;;1.40;;
8317;SDS011;4196;48.926;8.964;2023-08-06T12:53:07;1.30;;;1.20;;
8317;SDS011;4196;48.926;8.964;2023-08-06T12:55:54;2.33;;;1.10;;
8317;SDS011;4196;48.926;8.964;2023-08-06T12:58:41;1.53;;;1.23;;
8317;SDS011;4196;48.926;8.964;2023-08-06T13:01:28;2.93;;;1.30;;
8317;SDS011;4196;48.926;8.964;2023-08-06T13:04:14;2.20;;;1.30;;
8317;SDS011;4196;48.926;8.964;2023-08-06T13:07:08;1.30;;;1.20;;
8317;SDS011;4196;48.926;8.964;2023-08-06T13:09:54;1.70;;;1.20;;
8317;SDS011;4196;48.926;8.964;2023-08-06T13:12:41;1.37;;;1.27;;
8317;SDS011;4196;48.926;8.964;2023-08-06T13:15:27;1.30;;;1.20;;
8317;SDS011;4196;48.926;8.964;2023-08-06T13:18:14;1.30;;;1.13;;
8317;SDS011;4196;48.926;8.964;2023-08-06T13:21:00;1.47;;;0.67;;
8317;SDS011;4196;48.926;8.964;2023-08-06T13:23:46;0.90;;;0.90;;
8317;SDS011;4196;48.926;8.964;2023-08-06T13:26:33;3.63;;;1.00;;
8317;SDS011;4196;48.926;8.964;2023-08-06T13:29:20;0.70;;;0.70;;
8317;SDS011;4196;48.926;8.964;2023-08-06T13:32:06;0.93;;;0.73;;
8317;SDS011;4196;48.926;8.964;2023-08-06T13:34:53;1.37;;;0.87;;
8317;SDS011;4196;48.926;8.964;2023-08-06T13:37:39;0.87;;;0.70;;
8317;SDS011;4196;48.926;8.964;2023-08-06T13:40:25;0.80;;;0.80;;
8317;SDS011;4196;48.926;8.964;2023-08-06T13:43:13;0.67;;;0.67;;
8317;SDS011;4196;48.926;8.964;2023-08-06T13:46:01;1.17;;;1.07;;
8317;SDS011;4196;48.926;8.964;2023-08-06T13:48:48;0.87;;;0.83;;
8317;SDS011;4196;48.926;8.964;2023-08-06T13:51:38;1.20;;;0.83;;
8317;SDS011;4196;48.926;8.964;2023-08-06T13:54:24;1.20;;;0.67;;
8317;SDS011;4196;48.926;8.964;2023-08-06T13:57:10;0.87;;;0.73;;
8317;SDS011;4196;48.926;8.964;2023-08-06T13:59:57;1.30;;;0.80;;
8317;SDS011;4196;48.926;8.964;2023-08-06T14:02:43;0.70;;;0.70;;
8317;SDS011;4196;48.926;8.964;2023-08-06T14:05:30;2.17;;;0.97;;
8317;SDS011;4196;48.926;8.964;2023-08-06T14:08:17;0.80;;;0.80;;
8317;SDS011;4196;48.926;8.964;2023-08-06T14:11:06;0.90;;;0.90;;
8317;SDS011;4196;48.926;8.964;2023-08-06T14:13:53;1.73;;;0.97;;
8317;SDS011;4196;48.926;8.964;2023-08-06T14:16:39;1.10;;;0.80;;
8317;SDS011;4196;48.926;8.964;2023-08-06T14:19:26;1.07;;;1.00;;
8317;SDS011;4196;48.926;8.964;2023-08-06T14:22:12;0.70;;;0.70;;
8317;SDS011;4196;48.926;8.964;2023-08-06T14:24:59;1.10;;;1.00;;
8317;SDS011;4196;48.926;8.964;2023-08-06T14:27:45;1.20;;;0.80;;
8317;SDS011;4196;48.926;8.964;2023-08-06T14:30:32;2.23;;;1.20;;
8317;SDS011;4196;48.926;8.964;2023-08-06T14:33:19;1.63;;;1.10;;
8317;SDS011;4196;48.926;8.964;2023-08-06T14:36:13;1.43;;;1.00;;
8317;SDS011;4196;48.926;8.964;2023-08-06T14:38:59;1.63;;;1.00;;
8317;SDS011;4196;48.926;8.964;2023-08-06T14:41:46;1.10;;;1.10;;
8317;SDS011;4196;48.926;8.964;2023-08-06T14:44:33;4.53;;;1.60;;
8317;SDS011;4196;48.926;8.964;2023-08-06T14:47:19;0.80;;;0.80;;
8317;SDS011;4196;48.926;8.964;2023-08-06T14:50:05;1.47;;;0.90;;
8317;SDS011;4196;48.926;8.964;2023-08-06T14:52:52;1.03;;;0.80;;
8317;SDS011;4196;48.926;8.964;2023-08-06T14:55:38;1.07;;;0.93;;
8317;SDS011;4196;48.926;8.964;2023-08-06T14:58:24;2.30;;;1.10;;
8317;SDS011;4196;48.926;8.964;2023-08-06T15:01:10;2.00;;;1.13;;
8317;SDS011;4196;48.926;8.964;2023-08-06T15:03:58;1.53;;;1.03;;
8317;SDS011;4196;48.926;8.964;2023-08-06T15:06:44;0.80;;;0.80;;
8317;SDS011;4196;48.926;8.964;2023-08-06T15:09:31;1.03;;;1.03;;
8317;SDS011;4196;48.926;8.964;2023-08-06T15:12:30;0.77;;;0.77;;
8317;SDS011;4196;48.926;8.964;2023-08-06T15:15:17;1.57;;;0.90;;
8317;SDS011;4196;48.926;8.964;2023-08-06T15:18:04;0.90;;;0.90;;
8317;SDS011;4196;48.926;8.964;2023-08-06T15:20:50;2.57;;;0.90;;
8317;SDS011;4196;48.926;8.964;2023-08-06T15:23:37;0.70;;;0.70;;
8317;SDS011;4196;48.926;8.964;2023-08-06T15:26:24;2.37;;;0.90;;
8317;SDS011;4196;48.926;8.964;2023-08-06T15:29:10;1.77;;;0.90;;
8317;SDS011;4196;48.926;8.964;2023-08-06T15:31:57;0.93;;;0.93;;
8317;SDS011;4196;48.926;8.964;2023-08-06T15:34:44;0.83;;;0.83;;
8317;SDS011;4196;48.926;8.964;2023-08-06T15:37:30;1.40;;;1.00;;
8317;SDS011;4196;48.926;8.964;2023-08-06T15:40:16;1.27;;;1.00;;
8317;SDS011;4196;48.926;8.964;2023-08-06T15:43:03;0.83;;;0.83;;
8317;SDS011;4196;48.926;8.964;2023-08-06T15:45:50;0.97;;;0.87;;
8317;SDS011;4196;48.926;8.964;2023-08-06T15:48:36;1.73;;;1.00;;
8317;SDS011;4196;48.926;8.964;2023-08-06T15:51:23;0.60;;;0.60;;
8317;SDS011;4196;48.926;8.964;2023-08-06T15:54:09;1.60;;;0.80;;
8317;SDS011;4196;48.926;8.964;2023-08-06T15:56:56;2.13;;;0.90;;
8317;SDS011;4196;48.926;8.964;2023-08-06T15:59:42;2.63;;;1.30;;
8317;SDS011;4196;48.926;8.964;2023-08-06T16:02:29;1.37;;;1.07;;
8317;SDS011;4196;48.926;8.964;2023-08-06T16:05:15;0.93;;;0.93;;
8317;SDS011;4196;48.926;8.964;2023-08-06T16:08:01;1.23;;;0.97;;
8317;SDS011;4196;48.926;8.964;2023-08-06T16:10:48;2.67;;;1.37;;
8317;SDS011;4196;48.926;8.964;2023-08-06T16:13:34;2.07;;;0.87;;
8317;SDS011;4196;48.926;8.964;2023-08-06T16:16:21;2.83;;;1.87;;
8317;SDS011;4196;48.926;8.964;2023-08-06T16:19:07;2.13;;;1.00;;
8317;SDS011;4196;48.926;8.964;2023-08-06T16:21:53;0.90;;;0.90;;
8317;SDS011;4196;48.926;8.964;2023-08-06T16:24:40;2.17;;;1.27;;
8317;SDS011;4196;48.926;8.964;2023-08-06T16:27:26;0.80;;;0.80;;
8317;SDS011;4196;48.926;8.964;2023-08-06T16:30:13;1.47;;;1.17;;
8317;SDS011;4196;48.926;8.964;2023-08-06T16:33:01;1.97;;;1.10;;
8317;SDS011;4196;48.926;8.964;2023-08-06T16:35:48;1.07;;;0.83;;
8317;SDS011;4196;48.926;8.964;2023-08-06T16:38:35;1.60;;;0.93;;
8317;SDS011;4196;48.926;8.964;2023-08-06T16:41:21;1.20;;;1.10;;
8317;SDS011;4196;48.926;8.964;2023-08-06T16:44:08;0.80;;;0.80;;
8317;SDS011;4196;48.926;8.964;2023-08-06T16:46:58;2.57;;;1.27;;
8317;SDS011;4196;48.926;8.964;2023-08-06T16:49:45;1.90;;;1.47;;
8317;SDS011;4196;48.926;8.964;2023-08-06T16:52:32;1.30;;;1.20;;
8317;SDS011;4196;48.926;8.964;2023-08-06T16:55:18;1.00;;;0.90;;
8317;SDS011;4196;48.926;8.964;2023-08-06T16:58:05;2.53;;;1.37;;
8317;SDS011;4196;48.926;8.964;2023-08-06T17:00:52;1.60;;;1.23;;
8317;SDS011;4196;48.926;8.964;2023-08-06T17:03:38;1.30;;;1.20;;
8317;SDS011;4196;48.926;8.964;2023-08-06T17:06:25;1.13;;;1.03;;
8317;SDS011;4196;48.926;8.964;2023-08-06T17:09:12;2.10;;;1.83;;
8317;SDS011;4196;48.926;8.964;2023-08-06T17:11:58;1.73;;;1.20;;
8317;SDS011;4196;48.926;8.964;2023-08-06T17:14:45;2.37;;;1.47;;
8317;SDS011;4196;48.926;8.964;2023-08-06T17:17:32;1.80;;;1.60;;
8317;SDS011;4196;48.926;8.964;2023-08-06T17:20:18;2.07;;;1.83;;
8317;SDS011;4196;48.926;8.964;2023-08-06T17:23:05;2.37;;;1.43;;
8317;SDS011;4196;48.926;8.964;2023-08-06T17:25:52;1.37;;;1.27;;
8317;SDS011;4196;48.926;8.964;2023-08-06T17:28:39;2.23;;;1.73;;
8317;SDS011;4196;48.926;8.964;2023-08-06T17:31:26;1.70;;;1.50;;